CYLW/YLW METAR and TAF weather

Enter ICAO airport designator
Station Type Date Time Source
CYLW METAR 2020/10/22 04:00 UTC NOAA

CYLW 220400Z AUTO 05004KT 360V060 9SM BKN070 00/M02 A3023 RMK SLP256


Station Type Date Time Source
CYLW Decoded METAR 2020/10/22 04:00 UTC NOAA

Kelowna Airport, Canada (CYLW) 49-58N 119-23W 430M
Oct 22, 2020 - 12:00 AM EDT / 2020.10.22 0400 UTC
Wind: from the NE (050 degrees) at 5 MPH (4 KT) (direction variable):0
Visibility: 9 mile(s):0
Sky conditions: mostly cloudy
Temperature: 32 F (0 C)
Windchill: 26 F (-3 C):1
Dew Point: 28 F (-2 C)
Relative Humidity: 86%
Pressure (altimeter): 30.23 in. Hg (1023 hPa)
ob: CYLW 220400Z AUTO 05004KT 360V060 9SM BKN070 00/M02 A3023 RMK SLP256
cycle: 4

Station Type Date Time Source
CYLW TAF 2020/10/22 01:39 UTC NOAA

TAF CYLW 220038Z 2201/2213 35010KT P6SM BKN070
FM220400 VRB03KT P6SM FEW040
RMK FCST BASED ON AUTO OBS. NXT FCST BY 220700Z

Example: see airport list